createdAt,value
2023-03-12T00:02:16.338Z,96193.34
2023-03-12T00:04:56.181Z,96192.84
2023-03-12T00:07:23.422Z,96187.38
2023-03-12T00:09:50.745Z,96193.28
2023-03-12T00:12:17.622Z,96218.66
2023-03-12T00:14:44.566Z,96227.41
2023-03-12T00:17:11.713Z,96215.34
2023-03-12T00:19:39.060Z,96184.25
2023-03-12T00:22:05.993Z,96203.28
2023-03-12T00:24:33.158Z,96195.47
2023-03-12T00:27:00.096Z,96206.97
2023-03-12T00:29:27.151Z,96203.94
2023-03-12T00:31:56.953Z,96193.19
2023-03-12T00:34:23.936Z,96200.88
2023-03-12T00:36:50.760Z,96189.63
2023-03-12T00:39:17.508Z,96202.78
2023-03-12T00:41:44.396Z,96204.56
2023-03-12T00:44:11.152Z,96200.81
2023-03-12T00:46:38.384Z,96188.38
2023-03-12T00:49:05.348Z,96199.19
2023-03-12T00:51:32.295Z,96194.97
2023-03-12T00:53:59.241Z,96190.78
2023-03-12T00:56:29.586Z,96207.25
2023-03-12T00:58:56.888Z,96200.63
2023-03-12T01:01:24.116Z,96204.19
2023-03-12T01:03:54.551Z,96222.16
2023-03-12T01:06:22.597Z,96231.75
2023-03-12T01:09:03.191Z,96218.75
2023-03-12T01:14:26.769Z,96223.22
2023-03-12T01:14:27.314Z,96221.16
2023-03-12T01:16:54.034Z,96209.44
2023-03-12T01:19:27.736Z,96213.97
2023-03-12T01:21:55.096Z,96224.00
2023-03-12T01:24:26.728Z,96238.47
2023-03-12T01:26:53.779Z,96232.31
2023-03-12T01:29:20.721Z,96228.25
2023-03-12T01:31:47.703Z,96215.81
2023-03-12T01:34:15.190Z,96209.34
2023-03-12T01:36:42.146Z,96233.94
2023-03-12T01:39:09.195Z,96232.97
2023-03-12T01:41:40.103Z,96232.78
2023-03-12T01:44:08.989Z,96233.03
2023-03-12T01:46:46.233Z,96239.88
2023-03-12T01:49:26.418Z,96245.66
2023-03-12T01:52:04.296Z,96237.41
2023-03-12T01:54:41.524Z,96249.03
2023-03-12T01:57:16.980Z,96239.16
2023-03-12T02:00:03.931Z,96228.53
2023-03-12T02:02:52.601Z,96263.53
2023-03-12T02:06:04.784Z,96287.31
2023-03-12T02:08:46.811Z,96294.53
2023-03-12T02:11:15.045Z,96292.06
2023-03-12T02:14:05.278Z,96286.16
2023-03-12T02:16:35.428Z,96273.59
2023-03-12T02:19:33.520Z,96268.69
2023-03-12T02:22:04.639Z,96270.34
2023-03-12T02:24:48.031Z,96276.84
2023-03-12T02:27:25.519Z,96283.50
2023-03-12T02:33:07.436Z,96301.69
2023-03-12T02:37:24.441Z,96314.09
2023-03-12T02:38:59.285Z,96324.50
2023-03-12T02:42:14.142Z,96312.34
2023-03-12T02:45:08.468Z,96301.59
2023-03-12T02:47:35.159Z,96323.56
2023-03-12T02:50:42.748Z,96330.66
2023-03-12T02:53:09.796Z,96317.19
2023-03-12T02:55:38.231Z,96330.06
2023-03-12T02:58:08.626Z,96350.75
2023-03-12T03:00:37.063Z,96346.72
2023-03-12T03:03:09.820Z,96352.16
2023-03-12T03:05:37.823Z,96360.44
2023-03-12T03:08:05.989Z,96358.44
2023-03-12T03:10:32.795Z,96367.53
2023-03-12T03:13:00.060Z,96364.44
2023-03-12T03:15:27.626Z,96373.78
2023-03-12T03:17:54.857Z,96385.25
2023-03-12T03:20:23.331Z,96370.22
2023-03-12T03:22:58.604Z,96377.91
2023-03-12T03:31:44.695Z,96386.47
2023-03-12T03:34:12.697Z,96374.25
2023-03-12T03:36:39.688Z,96377.81
2023-03-12T03:39:06.495Z,96371.78
2023-03-12T03:41:33.330Z,96370.97
2023-03-12T03:44:00.380Z,96379.59
2023-03-12T03:46:27.486Z,96389.38
2023-03-12T03:48:54.792Z,96390.31
2023-03-12T03:51:21.963Z,96378.03
2023-03-12T03:53:49.117Z,96379.19
2023-03-12T03:56:17.116Z,96395.94
2023-03-12T03:58:44.141Z,96404.47
2023-03-12T04:01:15.644Z,96413.91
2023-03-12T04:03:42.604Z,96418.84
2023-03-12T04:06:10.777Z,96407.72
2023-03-12T04:08:42.739Z,96426.13
2023-03-12T04:11:16.816Z,96424.03
2023-03-12T04:14:06.191Z,96429.25
2023-03-12T04:16:33.304Z,96438.25
2023-03-12T04:19:00.322Z,96440.84
2023-03-12T04:21:49.160Z,96437.97
2023-03-12T04:24:44.468Z,96424.25
2023-03-12T04:27:49.703Z,96417.84
2023-03-12T04:30:29.864Z,96419.34
2023-03-12T04:35:50.511Z,96448.00
2023-03-12T04:38:20.577Z,96456.97
2023-03-12T04:40:47.848Z,96473.03
2023-03-12T04:43:16.763Z,96463.38
2023-03-12T04:45:43.452Z,96465.56
2023-03-12T04:48:10.230Z,96453.00
2023-03-12T04:50:47.723Z,96440.63
2023-03-12T04:53:27.536Z,96451.16
2023-03-12T04:55:55.063Z,96452.41
2023-03-12T04:58:23.038Z,96456.56
2023-03-12T05:00:50.427Z,96456.16
2023-03-12T05:03:19.204Z,96474.84
2023-03-12T05:05:46.336Z,96486.47
2023-03-12T05:08:14.831Z,96484.16
2023-03-12T05:10:48.788Z,96496.81
2023-03-12T05:13:23.754Z,96510.34
2023-03-12T05:15:53.187Z,96507.19
2023-03-12T05:18:21.598Z,96513.38
2023-03-12T05:21:08.958Z,96514.59
2023-03-12T05:23:37.148Z,96517.72
2023-03-12T05:26:16.171Z,96521.25
2023-03-12T05:28:43.224Z,96536.78
2023-03-12T05:31:11.943Z,96538.06
2023-03-12T05:33:39.476Z,96545.69
2023-03-12T05:36:07.604Z,96565.13
2023-03-12T05:38:35.418Z,96554.84
2023-03-12T05:41:02.604Z,96556.88
2023-03-12T05:43:29.980Z,96565.75
2023-03-12T05:46:02.863Z,96552.34
2023-03-12T05:48:31.013Z,96553.72
2023-03-12T05:50:58.349Z,96559.53
2023-03-12T05:53:34.061Z,96571.94
2023-03-12T05:56:21.866Z,96585.66
2023-03-12T05:58:50.095Z,96595.34
2023-03-12T06:01:51.245Z,96602.88
2023-03-12T06:04:58.192Z,96601.91
2023-03-12T06:07:25.329Z,96574.56
2023-03-12T06:10:01.119Z,96590.28
2023-03-12T06:12:36.106Z,96597.28
2023-03-12T06:19:00.725Z,96632.91
2023-03-12T06:24:31.137Z,96646.25
2023-03-12T06:26:57.902Z,96627.63
2023-03-12T06:29:24.768Z,96623.50
2023-03-12T06:31:52.593Z,96631.63
2023-03-12T06:34:20.572Z,96633.47
2023-03-12T06:37:10.474Z,96656.03
2023-03-12T06:39:46.195Z,96672.63
2023-03-12T06:42:28.389Z,96679.16
2023-03-12T06:51:42.496Z,96705.59
2023-03-12T06:54:23.551Z,96711.78
2023-03-12T06:56:58.252Z,96713.88
2023-03-12T06:59:33.447Z,96725.63
2023-03-12T07:02:27.170Z,96735.47
2023-03-12T07:05:11.143Z,96756.38
2023-03-12T07:07:52.534Z,96742.34
2023-03-12T07:10:36.876Z,96746.41
2023-03-12T07:13:54.366Z,96728.78
2023-03-12T07:19:26.193Z,96745.63
2023-03-12T07:20:49.033Z,96741.16
2023-03-12T07:25:15.825Z,96750.44
2023-03-12T07:28:26.569Z,96748.25
2023-03-12T07:30:54.015Z,96736.09
2023-03-12T07:33:40.633Z,96726.63
2023-03-12T07:39:13.748Z,96695.53
2023-03-12T07:41:41.787Z,96706.59
2023-03-12T07:46:51.666Z,96723.53
2023-03-12T07:49:35.390Z,96706.53
2023-03-12T07:52:13.204Z,96695.34
2023-03-12T07:54:59.387Z,96685.38
2023-03-12T07:57:52.795Z,96669.59
2023-03-12T08:00:32.141Z,96692.81
2023-03-12T08:03:07.645Z,96725.94
2023-03-12T08:05:40.893Z,96743.28
2023-03-12T08:08:15.504Z,96772.72
2023-03-12T08:10:44.094Z,96759.53
2023-03-12T08:13:22.110Z,96757.75
2023-03-12T08:15:54.455Z,96733.22
2023-03-12T08:18:27.017Z,96753.66
2023-03-12T08:21:59.763Z,96740.81
2023-03-12T08:24:26.514Z,96757.59
2023-03-12T08:26:53.535Z,96759.69
2023-03-12T08:29:27.628Z,96738.09
2023-03-12T08:33:15.436Z,96730.16
2023-03-12T08:36:14.461Z,96750.94
2023-03-12T08:38:41.497Z,96750.94
2023-03-12T08:41:12.703Z,96750.25
2023-03-12T08:44:00.892Z,96760.97
2023-03-12T08:46:35.617Z,96758.03
2023-03-12T08:49:31.254Z,96788.22
2023-03-12T08:52:07.361Z,96776.78
2023-03-12T08:54:38.722Z,96792.44
2023-03-12T08:57:22.922Z,96805.81
2023-03-12T09:00:00.753Z,96803.88
2023-03-12T09:02:28.665Z,96805.63
2023-03-12T09:04:58.744Z,96783.13
2023-03-12T09:07:31.825Z,96782.91
2023-03-12T09:10:04.360Z,96783.66
2023-03-12T09:12:40.911Z,96780.84
2023-03-12T09:15:16.272Z,96791.03
2023-03-12T09:17:43.403Z,96797.66
2023-03-12T09:20:19.670Z,96791.91
2023-03-12T09:22:49.589Z,96778.25
2023-03-12T09:25:21.142Z,96791.91
2023-03-12T09:27:51.384Z,96787.09
2023-03-12T09:30:22.716Z,96785.13
2023-03-12T09:32:50.096Z,96806.06
2023-03-12T09:35:20.297Z,96817.06
2023-03-12T09:37:51.535Z,96806.41
2023-03-12T09:40:23.384Z,96801.00
2023-03-12T09:43:01.071Z,96806.63
2023-03-12T09:45:45.484Z,96808.44
2023-03-12T09:48:24.668Z,96807.34
2023-03-12T09:50:52.647Z,96814.66
2023-03-12T09:53:48.426Z,96814.22
2023-03-12T09:56:19.136Z,96819.56
2023-03-12T09:59:11.154Z,96818.59
2023-03-12T10:01:44.727Z,96814.84
2023-03-12T10:04:59.525Z,96830.31
2023-03-12T10:07:49.671Z,96843.72
2023-03-12T10:10:38.620Z,96840.44
2023-03-12T10:13:36.743Z,96841.00
2023-03-12T10:16:33.324Z,96823.41
2023-03-12T10:19:22.067Z,96816.84
2023-03-12T10:22:16.860Z,96826.78
2023-03-12T10:24:58.675Z,96833.44
2023-03-12T10:27:54.594Z,96851.84
2023-03-12T10:30:48.708Z,96843.44
2023-03-12T10:33:20.737Z,96842.06
2023-03-12T10:35:57.121Z,96837.59
2023-03-12T10:38:45.654Z,96831.22
2023-03-12T10:41:34.794Z,96848.56
2023-03-12T10:44:09.228Z,96834.22
2023-03-12T10:46:57.711Z,96812.41
2023-03-12T10:49:54.298Z,96809.00
2023-03-12T10:52:26.028Z,96816.09
2023-03-12T10:54:54.835Z,96819.09
2023-03-12T10:57:40.546Z,96813.53
2023-03-12T11:00:13.848Z,96806.34
2023-03-12T11:02:46.624Z,96808.56
2023-03-12T11:05:22.507Z,96817.81
2023-03-12T11:07:49.849Z,96819.22
2023-03-12T11:10:47.812Z,96813.81
2023-03-12T11:13:40.898Z,96828.78
2023-03-12T11:16:17.001Z,96831.84
2023-03-12T11:19:17.372Z,96821.44
2023-03-12T11:22:01.513Z,96812.13
2023-03-12T11:24:30.207Z,96811.97
2023-03-12T11:27:08.024Z,96818.13
2023-03-12T11:29:40.545Z,96826.44
2023-03-12T11:32:35.830Z,96826.66
2023-03-12T11:35:11.804Z,96823.94
2023-03-12T11:38:16.541Z,96836.47
2023-03-12T11:40:53.144Z,96839.25
2023-03-12T11:43:43.359Z,96837.25
2023-03-12T11:46:57.612Z,96831.69
2023-03-12T11:49:32.861Z,96829.69
2023-03-12T11:52:47.763Z,96839.38
2023-03-12T11:55:45.611Z,96839.19
2023-03-12T11:58:53.905Z,96838.72
2023-03-12T12:01:26.831Z,96838.59
2023-03-12T12:04:24.090Z,96833.03
2023-03-12T12:06:58.754Z,96838.84
2023-03-12T12:09:44.607Z,96833.66
2023-03-12T12:12:15.354Z,96840.13
2023-03-12T12:15:07.635Z,96838.44
2023-03-12T12:18:32.375Z,96838.06
2023-03-12T12:21:27.149Z,96838.88
2023-03-12T12:24:06.460Z,96840.06
2023-03-12T12:30:19.620Z,96834.47
2023-03-12T12:33:34.960Z,96833.16
2023-03-12T12:36:11.258Z,96841.13
2023-03-12T12:39:27.376Z,96851.88
2023-03-12T12:41:59.926Z,96842.00
2023-03-12T12:44:37.414Z,96862.22
2023-03-12T12:47:07.004Z,96846.50
2023-03-12T12:49:43.588Z,96848.81
2023-03-12T12:52:14.183Z,96866.94
2023-03-12T12:55:06.920Z,96863.63
2023-03-12T12:57:34.067Z,96868.88
2023-03-12T13:00:42.656Z,96872.28
2023-03-12T13:03:19.693Z,96869.53
2023-03-12T13:05:54.642Z,96877.25
2023-03-12T13:08:39.789Z,96878.47
2023-03-12T13:11:24.896Z,96869.94
2023-03-12T13:14:11.720Z,96873.53
2023-03-12T13:19:55.665Z,96871.78
2023-03-12T13:23:12.925Z,96876.16
2023-03-12T13:25:56.504Z,96891.06
2023-03-12T13:28:26.586Z,96883.59
2023-03-12T13:30:55.373Z,96883.09
2023-03-12T13:33:43.711Z,96891.25
2023-03-12T13:36:16.681Z,96901.03
2023-03-12T13:39:00.892Z,96904.06
2023-03-12T13:41:55.347Z,96906.53
2023-03-12T13:44:32.602Z,96904.06
2023-03-12T13:47:12.400Z,96898.09
2023-03-12T13:49:48.391Z,96906.69
2023-03-12T13:52:26.869Z,96908.16
2023-03-12T13:55:25.046Z,96905.44
2023-03-12T13:58:08.329Z,96918.81
2023-03-12T14:00:47.198Z,96906.38
2023-03-12T14:03:27.384Z,96901.34
2023-03-12T14:06:17.820Z,96913.81
2023-03-12T14:09:00.961Z,96921.28
2023-03-12T14:11:40.448Z,96920.22
2023-03-12T14:14:30.231Z,96928.47
2023-03-12T14:17:11.061Z,96929.09
2023-03-12T14:20:12.988Z,96933.25
2023-03-12T14:22:45.666Z,96932.72
2023-03-12T14:25:47.409Z,96927.69
2023-03-12T14:28:26.180Z,96920.91
2023-03-12T14:30:57.414Z,96926.63
2023-03-12T14:34:00.522Z,96933.00
2023-03-12T14:37:17.000Z,96933.16
2023-03-12T14:39:55.513Z,96932.84
2023-03-12T14:50:59.115Z,96943.88
2023-03-12T14:53:38.553Z,96942.38
2023-03-12T14:59:22.401Z,96948.28
2023-03-12T15:02:07.083Z,96948.28
2023-03-12T15:04:35.405Z,96960.16
2023-03-12T15:07:06.836Z,96959.34
2023-03-12T15:09:37.119Z,96957.34
2023-03-12T15:12:08.937Z,96969.47
2023-03-12T15:14:41.767Z,96967.38
2023-03-12T15:17:18.832Z,96971.63
2023-03-12T15:20:15.735Z,96970.56
2023-03-12T15:22:44.115Z,96974.00
2023-03-12T15:25:27.291Z,96973.56
2023-03-12T15:28:25.523Z,96982.09
2023-03-12T15:31:47.316Z,96986.66
2023-03-12T15:34:32.422Z,96983.94
2023-03-12T15:37:20.922Z,96987.13
2023-03-12T15:40:09.709Z,96996.63
2023-03-12T15:42:48.419Z,96996.28
2023-03-12T15:45:30.074Z,97004.25
2023-03-12T15:48:01.992Z,97003.09
2023-03-12T15:50:41.559Z,97013.56
2023-03-12T15:53:15.539Z,97013.78
2023-03-12T15:55:55.105Z,97023.44
2023-03-12T15:58:30.914Z,97027.22
2023-03-12T16:01:14.036Z,97039.34
2023-03-12T16:03:43.644Z,97039.47
2023-03-12T16:06:19.765Z,97045.91
2023-03-12T16:09:01.122Z,97046.38
2023-03-12T16:11:31.858Z,97051.84
2023-03-12T16:14:13.899Z,97054.22
2023-03-12T16:16:48.114Z,97062.75
2023-03-12T16:19:17.118Z,97063.25
2023-03-12T16:21:45.513Z,97074.69
2023-03-12T16:24:16.758Z,97078.72
2023-03-12T16:26:51.902Z,97071.69
2023-03-12T16:29:21.061Z,97080.13
2023-03-12T16:32:51.341Z,97080.13
2023-03-12T16:35:22.829Z,97084.88
2023-03-12T16:37:50.959Z,97090.81
2023-03-12T16:40:30.928Z,97096.19
2023-03-12T16:43:04.175Z,97110.41
2023-03-12T16:45:41.800Z,97109.00
2023-03-12T16:48:27.276Z,97104.84
2023-03-12T16:52:07.711Z,97108.03
2023-03-12T16:54:53.156Z,97116.44
2023-03-12T16:57:34.346Z,97115.00
2023-03-12T17:03:40.812Z,97141.38
2023-03-12T17:06:15.222Z,97139.34
2023-03-12T17:08:43.466Z,97143.97
2023-03-12T17:12:12.453Z,97148.34
2023-03-12T17:14:24.070Z,97154.19
2023-03-12T17:16:56.402Z,97155.84
2023-03-12T17:19:28.810Z,97162.97
2023-03-12T17:21:59.541Z,97166.78
2023-03-12T17:27:26.601Z,97168.16
2023-03-12T17:29:54.427Z,97187.69
2023-03-12T17:32:21.998Z,97167.94
2023-03-12T17:35:06.506Z,97181.38
2023-03-12T17:37:34.993Z,97183.16
2023-03-12T17:40:19.644Z,97204.66
2023-03-12T17:42:47.692Z,97204.56
2023-03-12T17:45:14.883Z,97202.06
2023-03-12T17:47:42.711Z,97195.38
2023-03-12T17:50:10.391Z,97201.69
2023-03-12T17:52:38.215Z,97210.25
2023-03-12T17:55:24.647Z,97214.75
2023-03-12T17:57:52.403Z,97208.59
2023-03-12T18:00:30.275Z,97217.38
2023-03-12T18:02:57.637Z,97229.28
2023-03-12T18:05:26.821Z,97229.59
2023-03-12T18:07:55.377Z,97228.75
2023-03-12T18:10:22.670Z,97232.25
2023-03-12T18:12:50.004Z,97236.44
2023-03-12T18:15:17.925Z,97240.22
2023-03-12T18:17:56.955Z,97235.44
2023-03-12T18:20:37.498Z,97243.38
2023-03-12T18:26:20.410Z,97233.19
2023-03-12T18:28:48.705Z,97251.22
2023-03-12T18:31:29.314Z,97261.88
2023-03-12T18:34:22.345Z,97256.97
2023-03-12T18:36:50.275Z,97255.53
2023-03-12T18:39:31.921Z,97266.81
2023-03-12T18:41:59.225Z,97267.34
2023-03-12T18:44:31.670Z,97262.97
2023-03-12T18:47:13.310Z,97271.31
2023-03-12T18:49:43.662Z,97274.56
2023-03-12T18:52:15.644Z,97281.78
2023-03-12T18:54:52.080Z,97286.88
2023-03-12T18:57:24.908Z,97289.81
2023-03-12T18:59:52.243Z,97287.53
2023-03-12T19:02:25.105Z,97283.66
2023-03-12T19:04:56.124Z,97293.91
2023-03-12T19:07:28.368Z,97304.53
2023-03-12T19:10:06.477Z,97304.09
2023-03-12T19:12:45.397Z,97304.84
2023-03-12T19:15:18.344Z,97313.81
2023-03-12T19:17:45.958Z,97302.34
2023-03-12T19:20:14.657Z,97311.84
2023-03-12T19:23:15.631Z,97315.91
2023-03-12T19:25:46.710Z,97324.50
2023-03-12T19:28:18.850Z,97330.75
2023-03-12T19:31:08.128Z,97320.91
2023-03-12T19:33:36.524Z,97320.72
2023-03-12T19:36:35.269Z,97331.34
2023-03-12T19:39:23.155Z,97333.28
2023-03-12T19:41:53.272Z,97343.19
2023-03-12T19:44:23.833Z,97342.44
2023-03-12T19:47:02.411Z,97350.47
2023-03-12T19:49:45.936Z,97352.22
2023-03-12T19:52:16.822Z,97364.09
2023-03-12T19:54:51.663Z,97350.19
2023-03-12T19:57:37.144Z,97369.16
2023-03-12T20:00:10.274Z,97372.16
2023-03-12T20:02:53.156Z,97369.09
2023-03-12T20:05:47.353Z,97375.66
2023-03-12T20:08:27.130Z,97371.13
2023-03-12T20:13:53.298Z,97377.91
2023-03-12T20:16:24.133Z,97384.34
2023-03-12T20:18:55.115Z,97382.69
2023-03-12T20:21:25.959Z,97389.41
2023-03-12T20:24:02.281Z,97395.50
2023-03-12T20:29:48.580Z,97402.78
2023-03-12T20:32:23.317Z,97409.09
2023-03-12T20:35:23.532Z,97420.28
2023-03-12T20:37:56.557Z,97422.31
2023-03-12T20:40:27.182Z,97424.91
2023-03-12T20:43:06.769Z,97425.84
2023-03-12T20:45:39.914Z,97428.06
2023-03-12T20:48:11.719Z,97430.84
2023-03-12T20:50:54.021Z,97437.28
2023-03-12T20:54:11.251Z,97432.53
2023-03-12T20:57:01.105Z,97435.50
2023-03-12T20:59:31.522Z,97436.44
2023-03-12T21:02:04.899Z,97434.59
2023-03-12T21:04:32.927Z,97432.72
2023-03-12T21:07:05.869Z,97438.28
2023-03-12T21:09:40.537Z,97441.09
2023-03-12T21:12:21.956Z,97434.31
2023-03-12T21:14:55.068Z,97435.69
2023-03-12T21:18:08.284Z,97431.53
2023-03-12T21:21:05.618Z,97435.69
2023-03-12T21:23:45.797Z,97437.47
2023-03-12T21:26:20.928Z,97437.16
2023-03-12T21:28:53.599Z,97437.16
2023-03-12T21:31:26.374Z,97440.53
2023-03-12T21:34:01.899Z,97444.06
2023-03-12T21:36:31.427Z,97448.44
2023-03-12T21:42:20.951Z,97439.13
2023-03-12T21:44:55.262Z,97451.59
2023-03-12T21:47:38.058Z,97462.84
2023-03-12T21:50:27.873Z,97454.09
2023-03-12T21:53:11.647Z,97458.47
2023-03-12T21:59:04.218Z,97455.88
2023-03-12T22:01:54.590Z,97461.66
2023-03-12T22:04:26.382Z,97453.19
2023-03-12T22:07:19.269Z,97457.47
2023-03-12T22:13:08.289Z,97476.06
2023-03-12T22:15:44.640Z,97476.47
2023-03-12T22:18:16.720Z,97475.81
2023-03-12T22:21:10.545Z,97466.03
2023-03-12T22:23:59.978Z,97474.41
2023-03-12T22:27:12.306Z,97464.16
2023-03-12T22:32:27.123Z,97483.16
2023-03-12T22:35:14.421Z,97485.94
2023-03-12T22:37:49.068Z,97477.75
2023-03-12T22:40:26.775Z,97487.50
2023-03-12T22:42:59.902Z,97479.59
2023-03-12T22:46:04.532Z,97486.56
2023-03-12T22:48:51.752Z,97489.66
2023-03-12T22:51:44.913Z,97489.56
2023-03-12T23:00:30.807Z,97495.41
2023-03-12T23:03:24.907Z,97510.50
2023-03-12T23:06:00.616Z,97520.91
2023-03-12T23:09:20.023Z,97531.03
2023-03-12T23:12:13.294Z,97529.09
2023-03-12T23:14:43.899Z,97535.25
2023-03-12T23:17:12.029Z,97535.41
2023-03-12T23:20:26.734Z,97542.84
2023-03-12T23:22:54.619Z,97543.22
2023-03-12T23:25:27.960Z,97546.91
2023-03-12T23:27:55.412Z,97531.16
2023-03-12T23:30:35.634Z,97543.53
2023-03-12T23:33:17.492Z,97550.97
2023-03-12T23:36:17.479Z,97559.34
2023-03-12T23:39:00.525Z,97545.59
2023-03-12T23:48:23.689Z,97558.97
2023-03-12T23:50:56.555Z,97578.50
2023-03-12T23:53:38.093Z,97569.41
2023-03-12T23:58:57.150Z,97567.13
